sensor_id;sensor_type;location;lat;lon;timestamp;pressure;altitude;pressure_sealevel;temperature;humidity
8573;BME280;4324;42.012;24.872;2023-03-31T00:02:11;98979.81;;;9.54;48.19
8573;BME280;4324;42.012;24.872;2023-03-31T00:04:39;98977.50;;;9.51;48.25
8573;BME280;4324;42.012;24.872;2023-03-31T00:07:12;98956.16;;;9.44;48.12
8573;BME280;4324;42.012;24.872;2023-03-31T00:09:39;98962.44;;;9.51;48.29
8573;BME280;4324;42.012;24.872;2023-03-31T00:12:12;98969.09;;;9.63;48.29
8573;BME280;4324;42.012;24.872;2023-03-31T00:14:39;98980.34;;;9.65;48.33
8573;BME280;4324;42.012;24.872;2023-03-31T00:17:06;98968.94;;;9.57;48.16
8573;BME280;4324;42.012;24.872;2023-03-31T00:19:34;98969.88;;;9.56;48.18
8573;BME280;4324;42.012;24.872;2023-03-31T00:22:00;98965.44;;;9.56;48.08
8573;BME280;4324;42.012;24.872;2023-03-31T00:24:30;98964.16;;;9.60;47.88
8573;BME280;4324;42.012;24.872;2023-03-31T00:26:57;98987.16;;;9.76;48.01
8573;BME280;4324;42.012;24.872;2023-03-31T00:29:25;98974.06;;;9.75;48.11
8573;BME280;4324;42.012;24.872;2023-03-31T00:31:53;98929.22;;;9.40;48.26
8573;BME280;4324;42.012;24.872;2023-03-31T00:34:20;98979.72;;;9.72;48.06
8573;BME280;4324;42.012;24.872;2023-03-31T00:36:47;98955.22;;;9.61;47.84
8573;BME280;4324;42.012;24.872;2023-03-31T00:39:14;98900.75;;;9.26;48.14
8573;BME280;4324;42.012;24.872;2023-03-31T00:41:42;98964.31;;;9.67;48.13
8573;BME280;4324;42.012;24.872;2023-03-31T00:44:12;98966.94;;;9.67;48.42
8573;BME280;4324;42.012;24.872;2023-03-31T00:46:44;98960.66;;;9.60;48.12
8573;BME280;4324;42.012;24.872;2023-03-31T00:49:17;98912.81;;;9.20;47.96
8573;BME280;4324;42.012;24.872;2023-03-31T00:51:48;98975.34;;;9.46;48.29
8573;BME280;4324;42.012;24.872;2023-03-31T00:54:17;98970.66;;;9.40;48.23
8573;BME280;4324;42.012;24.872;2023-03-31T00:56:48;98951.44;;;9.21;47.95
8573;BME280;4324;42.012;24.872;2023-03-31T00:59:24;98962.81;;;9.22;48.51
8573;BME280;4324;42.012;24.872;2023-03-31T01:01:55;98971.44;;;9.24;48.81
8573;BME280;4324;42.012;24.872;2023-03-31T01:04:28;98939.94;;;9.05;48.90
8573;BME280;4324;42.012;24.872;2023-03-31T01:07:01;98964.59;;;9.13;49.26
8573;BME280;4324;42.012;24.872;2023-03-31T01:09:30;98960.97;;;9.14;49.01
8573;BME280;4324;42.012;24.872;2023-03-31T01:12:01;98959.63;;;9.10;48.98
8573;BME280;4324;42.012;24.872;2023-03-31T01:14:30;98930.19;;;8.97;49.04
8573;BME280;4324;42.012;24.872;2023-03-31T01:16:58;98959.31;;;9.13;49.25
8573;BME280;4324;42.012;24.872;2023-03-31T01:19:34;98947.44;;;9.09;49.22
8573;BME280;4324;42.012;24.872;2023-03-31T01:22:40;98945.09;;;9.06;49.52
8573;BME280;4324;42.012;24.872;2023-03-31T01:28:37;98955.56;;;9.16;49.43
8573;BME280;4324;42.012;24.872;2023-03-31T01:34:40;98949.75;;;9.12;49.62
8573;BME280;4324;42.012;24.872;2023-03-31T01:37:46;98958.50;;;9.13;50.00
8573;BME280;4324;42.012;24.872;2023-03-31T01:40:39;98938.09;;;8.97;50.23
8573;BME280;4324;42.012;24.872;2023-03-31T01:43:11;98945.38;;;8.95;49.99
8573;BME280;4324;42.012;24.872;2023-03-31T01:45:49;98948.47;;;8.90;50.13
8573;BME280;4324;42.012;24.872;2023-03-31T01:48:26;98954.28;;;8.94;50.42
8573;BME280;4324;42.012;24.872;2023-03-31T01:51:02;98942.69;;;8.87;50.51
8573;BME280;4324;42.012;24.872;2023-03-31T01:53:35;98929.28;;;8.80;50.64
8573;BME280;4324;42.012;24.872;2023-03-31T01:56:12;98943.00;;;8.84;50.71
8573;BME280;4324;42.012;24.872;2023-03-31T01:58:43;98928.06;;;8.75;51.00
8573;BME280;4324;42.012;24.872;2023-03-31T02:01:17;98916.34;;;8.69;50.79
8573;BME280;4324;42.012;24.872;2023-03-31T02:03:49;98938.31;;;8.78;50.72
8573;BME280;4324;42.012;24.872;2023-03-31T02:06:25;98928.75;;;8.77;51.02
8573;BME280;4324;42.012;24.872;2023-03-31T02:08:56;98852.88;;;8.27;50.91
8573;BME280;4324;42.012;24.872;2023-03-31T02:11:27;98915.13;;;8.63;51.32
8573;BME280;4324;42.012;24.872;2023-03-31T02:13:56;98912.16;;;8.58;51.42
8573;BME280;4324;42.012;24.872;2023-03-31T02:16:29;98925.41;;;8.66;51.29
8573;BME280;4324;42.012;24.872;2023-03-31T02:19:01;98921.09;;;8.65;51.38
8573;BME280;4324;42.012;24.872;2023-03-31T02:21:31;98917.13;;;8.61;51.56
8573;BME280;4324;42.012;24.872;2023-03-31T02:24:01;98891.94;;;8.49;51.57
8573;BME280;4324;42.012;24.872;2023-03-31T02:26:36;98895.28;;;8.51;51.99
8573;BME280;4324;42.012;24.872;2023-03-31T02:29:05;98860.78;;;8.27;51.83
8573;BME280;4324;42.012;24.872;2023-03-31T02:31:39;98841.09;;;8.13;51.96
8573;BME280;4324;42.012;24.872;2023-03-31T02:34:09;98887.31;;;8.43;51.97
8573;BME280;4324;42.012;24.872;2023-03-31T02:36:36;98883.59;;;8.36;52.03
8573;BME280;4324;42.012;24.872;2023-03-31T02:39:07;98890.94;;;8.42;52.40
8573;BME280;4324;42.012;24.872;2023-03-31T02:41:36;98895.38;;;8.41;52.45
8573;BME280;4324;42.012;24.872;2023-03-31T02:44:03;98875.13;;;8.24;52.52
8573;BME280;4324;42.012;24.872;2023-03-31T02:46:30;98883.84;;;8.24;53.00
8573;BME280;4324;42.012;24.872;2023-03-31T02:49:00;98871.97;;;8.20;52.86
8573;BME280;4324;42.012;24.872;2023-03-31T02:52:08;98879.72;;;8.22;52.94
8573;BME280;4324;42.012;24.872;2023-03-31T02:55:10;98910.00;;;8.36;53.17
8573;BME280;4324;42.012;24.872;2023-03-31T03:00:50;98909.59;;;8.48;53.45
8573;BME280;4324;42.012;24.872;2023-03-31T03:03:27;98900.84;;;8.48;53.62
8573;BME280;4324;42.012;24.872;2023-03-31T03:06:01;98905.22;;;8.57;53.82
8573;BME280;4324;42.012;24.872;2023-03-31T03:08:38;98865.44;;;8.33;53.52
8573;BME280;4324;42.012;24.872;2023-03-31T03:11:14;98899.63;;;8.60;53.72
8573;BME280;4324;42.012;24.872;2023-03-31T03:13:51;98900.66;;;8.67;53.71
8573;BME280;4324;42.012;24.872;2023-03-31T03:16:22;98914.94;;;8.83;53.69
8573;BME280;4324;42.012;24.872;2023-03-31T03:18:55;98892.09;;;8.73;53.74
8573;BME280;4324;42.012;24.872;2023-03-31T03:21:23;98884.19;;;8.73;53.81
8573;BME280;4324;42.012;24.872;2023-03-31T03:23:50;98904.03;;;8.86;53.64
8573;BME280;4324;42.012;24.872;2023-03-31T03:26:18;98926.72;;;8.96;53.62
8573;BME280;4324;42.012;24.872;2023-03-31T03:28:49;98918.63;;;8.90;53.69
8573;BME280;4324;42.012;24.872;2023-03-31T03:31:17;98911.63;;;8.81;53.81
8573;BME280;4324;42.012;24.872;2023-03-31T03:33:43;98933.81;;;8.96;53.84
8573;BME280;4324;42.012;24.872;2023-03-31T03:36:11;98879.88;;;8.64;53.89
8573;BME280;4324;42.012;24.872;2023-03-31T03:38:38;98870.22;;;8.55;53.90
8573;BME280;4324;42.012;24.872;2023-03-31T03:41:05;98932.38;;;9.02;53.73
8573;BME280;4324;42.012;24.872;2023-03-31T03:43:32;98897.59;;;8.80;53.53
8573;BME280;4324;42.012;24.872;2023-03-31T03:46:01;98935.34;;;9.07;53.37
8573;BME280;4324;42.012;24.872;2023-03-31T03:48:27;98932.72;;;9.07;53.68
8573;BME280;4324;42.012;24.872;2023-03-31T03:50:55;98938.34;;;9.12;53.73
8573;BME280;4324;42.012;24.872;2023-03-31T03:53:21;98934.72;;;9.13;53.63
8573;BME280;4324;42.012;24.872;2023-03-31T03:55:48;98921.31;;;9.06;53.81
8573;BME280;4324;42.012;24.872;2023-03-31T03:58:16;98894.34;;;8.86;53.53
8573;BME280;4324;42.012;24.872;2023-03-31T04:00:44;98918.66;;;8.98;53.49
8573;BME280;4324;42.012;24.872;2023-03-31T04:03:12;98943.47;;;9.13;53.37
8573;BME280;4324;42.012;24.872;2023-03-31T04:05:41;98939.84;;;9.14;53.57
8573;BME280;4324;42.012;24.872;2023-03-31T04:08:08;98947.63;;;9.16;53.54
8573;BME280;4324;42.012;24.872;2023-03-31T04:10:35;98922.31;;;9.05;53.48
8573;BME280;4324;42.012;24.872;2023-03-31T04:13:01;98939.38;;;9.19;53.31
8573;BME280;4324;42.012;24.872;2023-03-31T04:15:28;98923.66;;;9.09;53.24
8573;BME280;4324;42.012;24.872;2023-03-31T04:17:55;98934.75;;;9.21;53.09
8573;BME280;4324;42.012;24.872;2023-03-31T04:20:24;98932.78;;;9.23;53.17
8573;BME280;4324;42.012;24.872;2023-03-31T04:22:52;98927.03;;;9.28;53.03
8573;BME280;4324;42.012;24.872;2023-03-31T04:25:19;98916.09;;;9.23;53.42
8573;BME280;4324;42.012;24.872;2023-03-31T04:27:48;98927.88;;;9.36;53.47
8573;BME280;4324;42.012;24.872;2023-03-31T04:30:20;98925.75;;;9.40;53.52
8573;BME280;4324;42.012;24.872;2023-03-31T04:32:57;98936.34;;;9.48;53.24
8573;BME280;4324;42.012;24.872;2023-03-31T04:35:27;98933.88;;;9.55;52.98
8573;BME280;4324;42.012;24.872;2023-03-31T04:38:07;98890.72;;;9.38;52.98
8573;BME280;4324;42.012;24.872;2023-03-31T04:40:34;98886.81;;;9.50;53.36
8573;BME280;4324;42.012;24.872;2023-03-31T04:43:01;98913.75;;;9.70;52.99
8573;BME280;4324;42.012;24.872;2023-03-31T04:45:28;98899.38;;;9.64;53.51
8573;BME280;4324;42.012;24.872;2023-03-31T04:47:54;98838.72;;;9.38;53.47
8573;BME280;4324;42.012;24.872;2023-03-31T04:50:21;98877.88;;;9.67;53.42
8573;BME280;4324;42.012;24.872;2023-03-31T04:52:50;98860.69;;;9.63;53.03
8573;BME280;4324;42.012;24.872;2023-03-31T04:55:17;98897.13;;;9.94;53.16
8573;BME280;4324;42.012;24.872;2023-03-31T04:57:44;98918.09;;;10.12;53.24
8573;BME280;4324;42.012;24.872;2023-03-31T05:00:12;98870.81;;;9.92;53.25
8573;BME280;4324;42.012;24.872;2023-03-31T05:02:40;98907.03;;;10.25;53.31
8573;BME280;4324;42.012;24.872;2023-03-31T05:05:07;98915.16;;;10.39;53.15
8573;BME280;4324;42.012;24.872;2023-03-31T05:07:35;98901.41;;;10.44;53.06
8573;BME280;4324;42.012;24.872;2023-03-31T05:10:04;98894.44;;;10.59;52.87
8573;BME280;4324;42.012;24.872;2023-03-31T05:12:33;98887.16;;;10.61;52.85
8573;BME280;4324;42.012;24.872;2023-03-31T05:15:00;98824.66;;;10.36;52.90
8573;BME280;4324;42.012;24.872;2023-03-31T05:17:30;98876.50;;;10.78;52.95
8573;BME280;4324;42.012;24.872;2023-03-31T05:19:58;98855.53;;;10.68;52.89
8573;BME280;4324;42.012;24.872;2023-03-31T05:22:24;98855.31;;;10.78;52.85
8573;BME280;4324;42.012;24.872;2023-03-31T05:24:52;98857.34;;;10.76;52.52
8573;BME280;4324;42.012;24.872;2023-03-31T05:27:20;98856.78;;;10.88;52.89
8573;BME280;4324;42.012;24.872;2023-03-31T05:29:47;98852.31;;;10.89;53.17
8573;BME280;4324;42.012;24.872;2023-03-31T05:32:14;98851.97;;;10.92;53.21
8573;BME280;4324;42.012;24.872;2023-03-31T05:34:41;98833.59;;;10.90;52.99
8573;BME280;4324;42.012;24.872;2023-03-31T05:37:08;98830.09;;;10.98;52.93
8573;BME280;4324;42.012;24.872;2023-03-31T05:39:35;98823.75;;;11.07;52.57
8573;BME280;4324;42.012;24.872;2023-03-31T05:42:02;98801.59;;;11.00;52.45
8573;BME280;4324;42.012;24.872;2023-03-31T05:44:31;98817.03;;;11.20;52.39
8573;BME280;4324;42.012;24.872;2023-03-31T05:46:58;98797.09;;;11.09;52.25
8573;BME280;4324;42.012;24.872;2023-03-31T05:49:25;98833.03;;;11.34;52.38
8573;BME280;4324;42.012;24.872;2023-03-31T05:51:52;98809.41;;;11.25;52.28
8573;BME280;4324;42.012;24.872;2023-03-31T05:54:19;98815.19;;;11.28;52.41
8573;BME280;4324;42.012;24.872;2023-03-31T05:56:46;98823.91;;;11.37;52.26
8573;BME280;4324;42.012;24.872;2023-03-31T05:59:13;98760.13;;;10.84;52.39
8573;BME280;4324;42.012;24.872;2023-03-31T06:01:42;98794.31;;;11.02;52.65
8573;BME280;4324;42.012;24.872;2023-03-31T06:04:09;98801.63;;;10.92;52.89
8573;BME280;4324;42.012;24.872;2023-03-31T06:06:36;98838.03;;;10.98;52.92
8573;BME280;4324;42.012;24.872;2023-03-31T06:09:03;98848.38;;;10.77;52.92
8573;BME280;4324;42.012;24.872;2023-03-31T06:11:30;98855.69;;;10.66;52.91
8573;BME280;4324;42.012;24.872;2023-03-31T06:13:57;98826.47;;;10.44;52.98
8573;BME280;4324;42.012;24.872;2023-03-31T06:16:24;98839.72;;;10.44;53.22
8573;BME280;4324;42.012;24.872;2023-03-31T06:18:54;98827.00;;;10.31;53.25
8573;BME280;4324;42.012;24.872;2023-03-31T06:21:21;98833.94;;;10.32;53.34
8573;BME280;4324;42.012;24.872;2023-03-31T06:23:49;98841.41;;;10.28;53.22
8573;BME280;4324;42.012;24.872;2023-03-31T06:26:19;98810.94;;;10.08;53.03
8573;BME280;4324;42.012;24.872;2023-03-31T06:28:48;98842.03;;;10.30;52.79
8573;BME280;4324;42.012;24.872;2023-03-31T06:31:16;98828.31;;;10.27;52.90
8573;BME280;4324;42.012;24.872;2023-03-31T06:33:44;98803.47;;;10.19;52.92
8573;BME280;4324;42.012;24.872;2023-03-31T06:36:14;98832.22;;;10.55;52.89
8573;BME280;4324;42.012;24.872;2023-03-31T06:38:42;98825.22;;;10.71;52.80
8573;BME280;4324;42.012;24.872;2023-03-31T06:41:11;98808.97;;;10.82;52.57
8573;BME280;4324;42.012;24.872;2023-03-31T06:43:38;98809.88;;;11.05;52.14
8573;BME280;4324;42.012;24.872;2023-03-31T06:46:05;98805.88;;;11.32;51.96
8573;BME280;4324;42.012;24.872;2023-03-31T06:48:33;98800.00;;;11.45;51.97
8573;BME280;4324;42.012;24.872;2023-03-31T06:51:01;98806.53;;;11.80;51.70
8573;BME280;4324;42.012;24.872;2023-03-31T06:53:31;98773.13;;;11.94;51.68
8573;BME280;4324;42.012;24.872;2023-03-31T06:55:58;98785.31;;;12.33;51.39
8573;BME280;4324;42.012;24.872;2023-03-31T06:58:25;98769.84;;;12.51;50.75
8573;BME280;4324;42.012;24.872;2023-03-31T07:00:52;98762.22;;;12.78;50.50
8573;BME280;4324;42.012;24.872;2023-03-31T07:03:19;98692.59;;;12.68;50.07
8573;BME280;4324;42.012;24.872;2023-03-31T07:05:49;98770.94;;;13.44;49.88
8573;BME280;4324;42.012;24.872;2023-03-31T07:08:17;98759.03;;;13.62;49.20
8573;BME280;4324;42.012;24.872;2023-03-31T07:10:45;98763.13;;;13.86;49.04
8573;BME280;4324;42.012;24.872;2023-03-31T07:13:14;98767.31;;;14.01;48.81
8573;BME280;4324;42.012;24.872;2023-03-31T07:15:43;98785.75;;;14.24;48.78
8573;BME280;4324;42.012;24.872;2023-03-31T07:18:12;98755.75;;;14.16;48.37
8573;BME280;4324;42.012;24.872;2023-03-31T07:20:40;98782.38;;;14.16;48.12
8573;BME280;4324;42.012;24.872;2023-03-31T07:23:07;98800.50;;;13.99;48.38
8573;BME280;4324;42.012;24.872;2023-03-31T07:25:34;98796.53;;;13.67;48.65
8573;BME280;4324;42.012;24.872;2023-03-31T07:28:03;98810.53;;;13.54;48.98
8573;BME280;4324;42.012;24.872;2023-03-31T07:30:31;98806.53;;;13.43;49.15
8573;BME280;4324;42.012;24.872;2023-03-31T07:32:58;98771.47;;;13.18;48.85
8573;BME280;4324;42.012;24.872;2023-03-31T07:35:25;98716.03;;;12.79;48.99
8573;BME280;4324;42.012;24.872;2023-03-31T07:37:52;98795.97;;;13.28;48.83
8573;BME280;4324;42.012;24.872;2023-03-31T07:40:22;98791.25;;;13.30;48.73
8573;BME280;4324;42.012;24.872;2023-03-31T07:42:49;98802.72;;;13.31;48.72
8573;BME280;4324;42.012;24.872;2023-03-31T07:45:19;98794.31;;;13.27;49.00
8573;BME280;4324;42.012;24.872;2023-03-31T07:47:46;98787.53;;;13.25;48.81
8573;BME280;4324;42.012;24.872;2023-03-31T07:50:15;98781.91;;;13.20;49.03
8573;BME280;4324;42.012;24.872;2023-03-31T07:52:43;98784.19;;;13.23;48.49
8573;BME280;4324;42.012;24.872;2023-03-31T07:55:11;98787.16;;;13.28;48.83
8573;BME280;4324;42.012;24.872;2023-03-31T07:57:38;98780.56;;;13.24;48.63
8573;BME280;4324;42.012;24.872;2023-03-31T08:00:07;98763.28;;;13.20;48.63
8573;BME280;4324;42.012;24.872;2023-03-31T08:02:38;98786.28;;;13.42;48.61
8573;BME280;4324;42.012;24.872;2023-03-31T08:05:05;98784.94;;;13.53;48.43
8573;BME280;4324;42.012;24.872;2023-03-31T08:07:33;98793.63;;;13.62;48.35
8573;BME280;4324;42.012;24.872;2023-03-31T08:10:02;98792.03;;;13.67;48.16
8573;BME280;4324;42.012;24.872;2023-03-31T08:12:29;98784.31;;;13.72;48.03
8573;BME280;4324;42.012;24.872;2023-03-31T08:14:56;98779.03;;;13.79;47.95
8573;BME280;4324;42.012;24.872;2023-03-31T08:17:23;98770.50;;;13.90;47.98
8573;BME280;4324;42.012;24.872;2023-03-31T08:19:51;98762.25;;;14.07;47.70
8573;BME280;4324;42.012;24.872;2023-03-31T08:22:19;98757.66;;;14.22;47.50
8573;BME280;4324;42.012;24.872;2023-03-31T08:24:47;98745.41;;;14.34;47.31
8573;BME280;4324;42.012;24.872;2023-03-31T08:27:14;98729.47;;;14.41;47.26
8573;BME280;4324;42.012;24.872;2023-03-31T08:29:41;98714.16;;;14.49;46.92
8573;BME280;4324;42.012;24.872;2023-03-31T08:32:08;98691.47;;;14.60;46.67
8573;BME280;4324;42.012;24.872;2023-03-31T08:34:35;98711.66;;;14.89;46.46
8573;BME280;4324;42.012;24.872;2023-03-31T08:37:03;98701.66;;;15.05;45.92
8573;BME280;4324;42.012;24.872;2023-03-31T08:39:30;98669.84;;;14.96;45.94
8573;BME280;4324;42.012;24.872;2023-03-31T08:42:00;98681.19;;;15.25;45.76
8573;BME280;4324;42.012;24.872;2023-03-31T08:44:31;98670.72;;;15.50;45.69
8573;BME280;4324;42.012;24.872;2023-03-31T08:47:02;98680.16;;;15.86;45.43
8573;BME280;4324;42.012;24.872;2023-03-31T08:49:40;98673.13;;;16.05;45.16
8573;BME280;4324;42.012;24.872;2023-03-31T08:52:13;98675.13;;;16.29;44.80
8573;BME280;4324;42.012;24.872;2023-03-31T08:54:42;98621.78;;;16.09;44.86
8573;BME280;4324;42.012;24.872;2023-03-31T08:57:14;98656.59;;;16.34;44.44
8573;BME280;4324;42.012;24.872;2023-03-31T08:59:44;98660.06;;;16.41;43.96
8573;BME280;4324;42.012;24.872;2023-03-31T09:02:19;98661.50;;;16.44;44.22
8573;BME280;4324;42.012;24.872;2023-03-31T09:05:10;98657.41;;;16.41;44.04
8573;BME280;4324;42.012;24.872;2023-03-31T09:07:50;98646.28;;;16.44;44.06
8573;BME280;4324;42.012;24.872;2023-03-31T09:10:29;98622.88;;;16.40;43.56
8573;BME280;4324;42.012;24.872;2023-03-31T09:13:06;98636.75;;;16.62;43.69
8573;BME280;4324;42.012;24.872;2023-03-31T09:15:39;98594.84;;;16.56;43.78
8573;BME280;4324;42.012;24.872;2023-03-31T09:18:15;98603.81;;;16.75;43.71
8573;BME280;4324;42.012;24.872;2023-03-31T09:28:50;98566.34;;;16.81;43.49
8573;BME280;4324;42.012;24.872;2023-03-31T09:31:19;98550.72;;;16.78;43.43
8573;BME280;4324;42.012;24.872;2023-03-31T09:33:50;98583.28;;;17.25;42.76
8573;BME280;4324;42.012;24.872;2023-03-31T09:36:20;98593.66;;;17.58;42.97
8573;BME280;4324;42.012;24.872;2023-03-31T09:38:48;98589.63;;;17.93;42.42
8573;BME280;4324;42.012;24.872;2023-03-31T09:41:16;98574.34;;;18.11;42.23
8573;BME280;4324;42.012;24.872;2023-03-31T09:43:45;98581.72;;;18.46;41.65
8573;BME280;4324;42.012;24.872;2023-03-31T09:46:18;98577.63;;;18.62;41.29
8573;BME280;4324;42.012;24.872;2023-03-31T09:48:54;98573.78;;;18.70;40.96
8573;BME280;4324;42.012;24.872;2023-03-31T09:51:27;98547.50;;;18.60;40.99
8573;BME280;4324;42.012;24.872;2023-03-31T09:54:01;98560.31;;;18.76;41.10
8573;BME280;4324;42.012;24.872;2023-03-31T09:56:44;98546.53;;;18.73;40.94
8573;BME280;4324;42.012;24.872;2023-03-31T09:59:14;98563.44;;;18.73;40.91
8573;BME280;4324;42.012;24.872;2023-03-31T10:01:45;98542.84;;;18.55;41.16
8573;BME280;4324;42.012;24.872;2023-03-31T10:04:22;98534.72;;;18.62;41.01
8573;BME280;4324;42.012;24.872;2023-03-31T10:06:49;98546.41;;;18.79;41.12
8573;BME280;4324;42.012;24.872;2023-03-31T10:09:18;98534.31;;;18.89;41.18
8573;BME280;4324;42.012;24.872;2023-03-31T10:12:03;98521.63;;;18.96;41.14
8573;BME280;4324;42.012;24.872;2023-03-31T10:14:40;98479.38;;;18.79;40.87
8573;BME280;4324;42.012;24.872;2023-03-31T10:17:17;98464.88;;;18.69;40.86
8573;BME280;4324;42.012;24.872;2023-03-31T10:19:50;98491.41;;;18.77;40.85
8573;BME280;4324;42.012;24.872;2023-03-31T10:22:27;98531.50;;;18.83;40.87
8573;BME280;4324;42.012;24.872;2023-03-31T10:25:08;98526.34;;;18.70;41.05
8573;BME280;4324;42.012;24.872;2023-03-31T10:27:38;98535.66;;;18.68;41.18
8573;BME280;4324;42.012;24.872;2023-03-31T10:30:11;98525.34;;;18.53;41.03
8573;BME280;4324;42.012;24.872;2023-03-31T10:32:40;98528.53;;;18.61;41.28
8573;BME280;4324;42.012;24.872;2023-03-31T10:35:14;98516.06;;;18.67;41.20
8573;BME280;4324;42.012;24.872;2023-03-31T10:37:47;98525.44;;;18.76;41.11
8573;BME280;4324;42.012;24.872;2023-03-31T10:40:19;98496.53;;;18.78;41.11
8573;BME280;4324;42.012;24.872;2023-03-31T10:42:57;98516.38;;;19.01;41.08
8573;BME280;4324;42.012;24.872;2023-03-31T10:45:27;98517.53;;;19.05;40.86
8573;BME280;4324;42.012;24.872;2023-03-31T10:47:59;98509.84;;;18.97;41.02
8573;BME280;4324;42.012;24.872;2023-03-31T10:50:29;98498.50;;;18.95;41.04
8573;BME280;4324;42.012;24.872;2023-03-31T10:53:04;98504.38;;;19.03;41.20
8573;BME280;4324;42.012;24.872;2023-03-31T10:55:35;98505.78;;;19.06;41.05
8573;BME280;4324;42.012;24.872;2023-03-31T11:01:30;98491.66;;;18.99;41.12
8573;BME280;4324;42.012;24.872;2023-03-31T11:07:36;98472.53;;;18.95;41.41
8573;BME280;4324;42.012;24.872;2023-03-31T11:10:20;98479.97;;;19.05;41.45
8573;BME280;4324;42.012;24.872;2023-03-31T11:16:32;98436.09;;;19.11;41.21
8573;BME280;4324;42.012;24.872;2023-03-31T11:19:21;98431.31;;;19.25;41.24
8573;BME280;4324;42.012;24.872;2023-03-31T11:21:57;98434.34;;;19.28;41.01
8573;BME280;4324;42.012;24.872;2023-03-31T11:24:49;98448.91;;;19.44;41.15
8573;BME280;4324;42.012;24.872;2023-03-31T11:27:37;98405.34;;;19.42;41.16
8573;BME280;4324;42.012;24.872;2023-03-31T11:30:19;98416.88;;;19.66;40.82
8573;BME280;4324;42.012;24.872;2023-03-31T11:33:00;98431.47;;;19.99;40.56
8573;BME280;4324;42.012;24.872;2023-03-31T11:35:53;98417.91;;;20.39;40.60
8573;BME280;4324;42.012;24.872;2023-03-31T11:38:43;98410.22;;;20.76;40.20
8573;BME280;4324;42.012;24.872;2023-03-31T11:41:14;98388.47;;;20.83;39.90
8573;BME280;4324;42.012;24.872;2023-03-31T11:43:44;98402.16;;;20.98;39.56
8573;BME280;4324;42.012;24.872;2023-03-31T11:46:16;98393.75;;;20.95;39.31
8573;BME280;4324;42.012;24.872;2023-03-31T11:48:46;98360.94;;;20.76;38.90
8573;BME280;4324;42.012;24.872;2023-03-31T11:51:21;98351.91;;;20.65;38.69
8573;BME280;4324;42.012;24.872;2023-03-31T11:53:52;98371.34;;;20.89;38.76
8573;BME280;4324;42.012;24.872;2023-03-31T11:56:20;98369.69;;;21.05;38.42
8573;BME280;4324;42.012;24.872;2023-03-31T11:59:04;98360.75;;;21.21;37.94
8573;BME280;4324;42.012;24.872;2023-03-31T12:01:47;98351.03;;;21.42;37.59
8573;BME280;4324;42.012;24.872;2023-03-31T12:04:26;98351.97;;;21.53;37.46
8573;BME280;4324;42.012;24.872;2023-03-31T12:07:03;98342.81;;;21.54;37.35
8573;BME280;4324;42.012;24.872;2023-03-31T12:09:35;98332.63;;;21.56;37.23
8573;BME280;4324;42.012;24.872;2023-03-31T12:12:05;98328.31;;;21.55;38.25
8573;BME280;4324;42.012;24.872;2023-03-31T12:14:39;98340.09;;;21.49;36.98
8573;BME280;4324;42.012;24.872;2023-03-31T12:17:10;98325.69;;;21.38;36.58
8573;BME280;4324;42.012;24.872;2023-03-31T12:19:44;98326.56;;;21.44;36.18
8573;BME280;4324;42.012;24.872;2023-03-31T12:22:17;98322.75;;;21.40;35.56
8573;BME280;4324;42.012;24.872;2023-03-31T12:24:45;98323.25;;;21.37;35.41
8573;BME280;4324;42.012;24.872;2023-03-31T12:30:10;98306.97;;;21.26;35.16
8573;BME280;4324;42.012;24.872;2023-03-31T12:32:44;98316.72;;;21.33;35.38
8573;BME280;4324;42.012;24.872;2023-03-31T12:35:20;98316.84;;;21.43;35.37
8573;BME280;4324;42.012;24.872;2023-03-31T12:38:15;98317.16;;;21.46;35.08
8573;BME280;4324;42.012;24.872;2023-03-31T12:40:57;98275.72;;;21.25;35.06
8573;BME280;4324;42.012;24.872;2023-03-31T12:44:01;98318.53;;;21.49;35.15
8573;BME280;4324;42.012;24.872;2023-03-31T12:46:57;98327.34;;;21.66;35.13
8573;BME280;4324;42.012;24.872;2023-03-31T12:49:42;98307.69;;;21.66;34.71
8573;BME280;4324;42.012;24.872;2023-03-31T12:52:17;98311.25;;;21.77;35.11
8573;BME280;4324;42.012;24.872;2023-03-31T12:55:04;98298.84;;;21.75;35.07
8573;BME280;4324;42.012;24.872;2023-03-31T12:57:43;98290.84;;;21.81;34.72
8573;BME280;4324;42.012;24.872;2023-03-31T13:00:28;98275.69;;;21.74;34.50
8573;BME280;4324;42.012;24.872;2023-03-31T13:06:04;98287.66;;;21.89;34.56
8573;BME280;4324;42.012;24.872;2023-03-31T13:08:51;98274.66;;;21.81;34.28
8573;BME280;4324;42.012;24.872;2023-03-31T13:11:21;98262.84;;;21.87;34.48
8573;BME280;4324;42.012;24.872;2023-03-31T13:14:02;98255.94;;;21.96;33.53
8573;BME280;4324;42.012;24.872;2023-03-31T13:19:46;98264.13;;;22.11;32.90
8573;BME280;4324;42.012;24.872;2023-03-31T13:22:31;98242.97;;;21.98;33.21
8573;BME280;4324;42.012;24.872;2023-03-31T13:25:38;98252.06;;;22.19;33.06
8573;BME280;4324;42.012;24.872;2023-03-31T13:28:40;98259.97;;;22.36;32.68
8573;BME280;4324;42.012;24.872;2023-03-31T13:31:11;98185.00;;;21.90;32.34
8573;BME280;4324;42.012;24.872;2023-03-31T13:33:47;98246.16;;;22.22;32.54
8573;BME280;4324;42.012;24.872;2023-03-31T13:39:58;98215.38;;;21.81;32.72
8573;BME280;4324;42.012;24.872;2023-03-31T13:43:04;98220.81;;;21.86;32.78
8573;BME280;4324;42.012;24.872;2023-03-31T13:45:47;98187.19;;;21.61;32.66
8573;BME280;4324;42.012;24.872;2023-03-31T13:48:31;98226.69;;;21.78;32.48
8573;BME280;4324;42.012;24.872;2023-03-31T13:51:24;98226.63;;;21.72;32.81
8573;BME280;4324;42.012;24.872;2023-03-31T13:54:35;98229.28;;;21.67;32.72
8573;BME280;4324;42.012;24.872;2023-03-31T13:57:30;98227.66;;;21.66;33.05
8573;BME280;4324;42.012;24.872;2023-03-31T14:00:13;98216.31;;;21.64;33.11
8573;BME280;4324;42.012;24.872;2023-03-31T14:02:56;98227.09;;;21.64;33.26
8573;BME280;4324;42.012;24.872;2023-03-31T14:05:33;98218.50;;;21.67;32.79
8573;BME280;4324;42.012;24.872;2023-03-31T14:08:08;98219.47;;;21.56;32.74
8573;BME280;4324;42.012;24.872;2023-03-31T14:10:40;98215.97;;;21.56;32.76
8573;BME280;4324;42.012;24.872;2023-03-31T14:13:09;98204.88;;;21.47;32.74
8573;BME280;4324;42.012;24.872;2023-03-31T14:15:47;98195.66;;;21.43;32.77
8573;BME280;4324;42.012;24.872;2023-03-31T14:18:24;98204.59;;;21.48;32.67
8573;BME280;4324;42.012;24.872;2023-03-31T14:21:08;98204.88;;;21.47;32.93
8573;BME280;4324;42.012;24.872;2023-03-31T14:23:47;98192.97;;;21.43;32.84
8573;BME280;4324;42.012;24.872;2023-03-31T14:26:28;98197.31;;;21.44;32.78